Scottsbluff, NE (69361)

2:55 AM MST on December 26, 2014 (GMT -0700)
KNEB Radio | Change Station
CLOSE
Current Station
Personal Weather Station
Location: Scottsbluff, NE
Elevation: 3878 ft
Nearby Weather Stations
Active Advisory: Winter Storm Warning Active Notice: Record Report, Local Storm Report

Elev 3878 ft 41.86 °N, 103.64 °W | Updated 11 minutes ago

Overcast
Overcast
18.1 °F
Feels Like 18 °F
N
0.0
Wind Variable Wind from WNW
Gusts 2.0 mph

Today
High -- | Low -- °F
--% Chance of Precip.
Yesterday
High -- | Low -- °F
Precip. -- in
7:21 AM 4:29 PM
Waxing Crescent, 24% visible
Pressure 30.06 in
Visibility 10.0 miles
Clouds Mostly Cloudy 4300 ft
Mostly Cloudy 5000 ft
Overcast 10000 ft
Windchill 18 °F
Dew Point 16 °F
Humidity 93%
Rainfall 0.00 in
Snow Depth Not available.
UV 0 out of 12
Pollen .10 out of 12
Air Quality Not available.
Flu Activity Not available.
METAR KBFF 260853Z AUTO 01007KT 10SM BKN043 BKN050 OVC100 M08/M10 A2994 RMK AO2 SNE41 SLP177 P0000 60002 T10781100 51001

More Conditions Fewer Conditions

Pressure 30.06 in
Visibility 10.0 miles
Clouds Mostly Cloudy 4300 ft
Mostly Cloudy 5000 ft
Overcast 10000 ft
Windchill 18 °F
Dew Point 16 °F
Humidity 93%
Rainfall 0.00 in
Snow Depth Not available.
UV 0 out of 12
Pollen .10 out of 12
Air Quality Not available.
Flu Activity Not available.
METAR KBFF 260853Z AUTO 01007KT 10SM BKN043 BKN050 OVC100 M08/M10 A2994 RMK AO2 SNE41 SLP177 P0000 60002 T10781100 51001

More Conditions Fewer Conditions

10-Day Weather Forecast

Almanac

Astronomy

Dec. 26, 2014 Rise Set
Actual Time
Civil Twilight
Nautical Twilight
Astronomical Twilight
Moon
Length of Visible Light
Length of Day
Tomorrow will be .
, % of the Moon is Illuminated

Today's Extremes

State Highs State Lows

Community

WunderPhotos

Upload Photos

1,780,568 photos uploaded!

WunderBlogs® & News

Nearby

Air Quality

  Air Quality AQ Index Pollutant
Not available.

Snow Depth

Station Depth Elevation

Earthquake Activity

City Distance Mag. Time & Date
Minimum magnitude displayed is 2.5.

Coastal Water Temperatures

Place Temperature

Nearby Weather Stations